sensor_id;sensor_type;location;lat;lon;timestamp;P1;durP1;ratioP1;P2;durP2;ratioP2
60014;SDS011;45867;52.480;6.056;2023-05-25T00:01:28;13.25;;;4.40;;
60014;SDS011;45867;52.480;6.056;2023-05-25T00:03:54;16.08;;;4.30;;
60014;SDS011;45867;52.480;6.056;2023-05-25T00:06:19;15.52;;;5.05;;
60014;SDS011;45867;52.480;6.056;2023-05-25T00:08:45;13.30;;;4.70;;
60014;SDS011;45867;52.480;6.056;2023-05-25T00:11:13;18.35;;;4.93;;
60014;SDS011;45867;52.480;6.056;2023-05-25T00:13:40;14.75;;;4.57;;
60014;SDS011;45867;52.480;6.056;2023-05-25T00:16:06;11.70;;;4.47;;
60014;SDS011;45867;52.480;6.056;2023-05-25T00:18:31;16.08;;;4.70;;
60014;SDS011;45867;52.480;6.056;2023-05-25T00:21:01;24.85;;;5.03;;
60014;SDS011;45867;52.480;6.056;2023-05-25T00:23:29;13.38;;;5.10;;
60014;SDS011;45867;52.480;6.056;2023-05-25T00:25:55;12.75;;;5.43;;
60014;SDS011;45867;52.480;6.056;2023-05-25T00:28:20;13.13;;;4.90;;
60014;SDS011;45867;52.480;6.056;2023-05-25T00:30:46;13.63;;;4.53;;
60014;SDS011;45867;52.480;6.056;2023-05-25T00:33:11;17.92;;;5.43;;
60014;SDS011;45867;52.480;6.056;2023-05-25T00:35:37;10.18;;;4.88;;
60014;SDS011;45867;52.480;6.056;2023-05-25T00:38:02;13.98;;;5.00;;
60014;SDS011;45867;52.480;6.056;2023-05-25T00:40:27;14.32;;;4.88;;
60014;SDS011;45867;52.480;6.056;2023-05-25T00:42:54;14.23;;;4.85;;
60014;SDS011;45867;52.480;6.056;2023-05-25T00:45:20;14.18;;;4.82;;
60014;SDS011;45867;52.480;6.056;2023-05-25T00:47:45;14.68;;;5.03;;
60014;SDS011;45867;52.480;6.056;2023-05-25T00:50:15;19.35;;;5.70;;
60014;SDS011;45867;52.480;6.056;2023-05-25T00:52:44;15.75;;;5.47;;
60014;SDS011;45867;52.480;6.056;2023-05-25T00:55:09;14.85;;;5.47;;
60014;SDS011;45867;52.480;6.056;2023-05-25T00:57:37;17.17;;;5.05;;
60014;SDS011;45867;52.480;6.056;2023-05-25T01:00:05;16.02;;;5.60;;
60014;SDS011;45867;52.480;6.056;2023-05-25T01:02:35;12.35;;;5.03;;
60014;SDS011;45867;52.480;6.056;2023-05-25T01:05:05;22.30;;;5.47;;
60014;SDS011;45867;52.480;6.056;2023-05-25T01:07:32;13.10;;;5.15;;
60014;SDS011;45867;52.480;6.056;2023-05-25T01:10:01;16.48;;;4.97;;
60014;SDS011;45867;52.480;6.056;2023-05-25T01:12:29;18.15;;;5.30;;
60014;SDS011;45867;52.480;6.056;2023-05-25T01:14:59;14.25;;;5.40;;
60014;SDS011;45867;52.480;6.056;2023-05-25T01:17:25;19.48;;;5.50;;
60014;SDS011;45867;52.480;6.056;2023-05-25T01:19:52;15.70;;;5.40;;
60014;SDS011;45867;52.480;6.056;2023-05-25T01:24:57;13.90;;;5.10;;
60014;SDS011;45867;52.480;6.056;2023-05-25T01:27:28;13.40;;;5.18;;
60014;SDS011;45867;52.480;6.056;2023-05-25T01:29:57;15.95;;;5.38;;
60014;SDS011;45867;52.480;6.056;2023-05-25T01:32:23;15.70;;;5.28;;
60014;SDS011;45867;52.480;6.056;2023-05-25T01:34:49;18.55;;;6.15;;
60014;SDS011;45867;52.480;6.056;2023-05-25T01:37:17;28.58;;;6.25;;
60014;SDS011;45867;52.480;6.056;2023-05-25T01:39:43;11.98;;;5.30;;
60014;SDS011;45867;52.480;6.056;2023-05-25T01:42:08;17.88;;;5.47;;
60014;SDS011;45867;52.480;6.056;2023-05-25T01:44:34;18.65;;;5.63;;
60014;SDS011;45867;52.480;6.056;2023-05-25T01:52:29;17.02;;;5.13;;
60014;SDS011;45867;52.480;6.056;2023-05-25T01:55:00;13.98;;;5.20;;
60014;SDS011;45867;52.480;6.056;2023-05-25T01:57:29;15.00;;;5.63;;
60014;SDS011;45867;52.480;6.056;2023-05-25T01:59:59;13.30;;;5.22;;
60014;SDS011;45867;52.480;6.056;2023-05-25T02:02:27;13.18;;;4.63;;
60014;SDS011;45867;52.480;6.056;2023-05-25T02:04:53;13.82;;;5.63;;
60014;SDS011;45867;52.480;6.056;2023-05-25T02:07:19;13.32;;;5.18;;
60014;SDS011;45867;52.480;6.056;2023-05-25T02:09:46;10.55;;;5.10;;
60014;SDS011;45867;52.480;6.056;2023-05-25T02:12:11;12.18;;;5.72;;
60014;SDS011;45867;52.480;6.056;2023-05-25T02:14:37;16.45;;;5.43;;
60014;SDS011;45867;52.480;6.056;2023-05-25T02:17:02;13.13;;;5.32;;
60014;SDS011;45867;52.480;6.056;2023-05-25T02:19:28;12.55;;;5.72;;
60014;SDS011;45867;52.480;6.056;2023-05-25T02:21:54;15.73;;;5.63;;
60014;SDS011;45867;52.480;6.056;2023-05-25T02:24:20;15.73;;;5.72;;
60014;SDS011;45867;52.480;6.056;2023-05-25T02:26:48;12.32;;;5.22;;
60014;SDS011;45867;52.480;6.056;2023-05-25T02:29:15;15.00;;;5.53;;
60014;SDS011;45867;52.480;6.056;2023-05-25T02:31:40;14.90;;;5.70;;
60014;SDS011;45867;52.480;6.056;2023-05-25T02:34:05;11.15;;;5.60;;
60014;SDS011;45867;52.480;6.056;2023-05-25T02:36:31;15.52;;;6.10;;
60014;SDS011;45867;52.480;6.056;2023-05-25T02:38:59;15.02;;;5.72;;
60014;SDS011;45867;52.480;6.056;2023-05-25T02:41:25;14.13;;;6.25;;
60014;SDS011;45867;52.480;6.056;2023-05-25T02:43:51;15.18;;;6.30;;
60014;SDS011;45867;52.480;6.056;2023-05-25T02:46:17;13.90;;;5.65;;
60014;SDS011;45867;52.480;6.056;2023-05-25T02:48:43;16.52;;;5.80;;
60014;SDS011;45867;52.480;6.056;2023-05-25T02:51:08;17.52;;;6.45;;
60014;SDS011;45867;52.480;6.056;2023-05-25T02:53:33;15.60;;;6.47;;
60014;SDS011;45867;52.480;6.056;2023-05-25T02:55:59;13.77;;;6.20;;
60014;SDS011;45867;52.480;6.056;2023-05-25T02:58:26;17.42;;;6.72;;
60014;SDS011;45867;52.480;6.056;2023-05-25T03:00:51;20.08;;;6.22;;
60014;SDS011;45867;52.480;6.056;2023-05-25T03:03:18;17.42;;;6.20;;
60014;SDS011;45867;52.480;6.056;2023-05-25T03:05:44;11.45;;;5.22;;
60014;SDS011;45867;52.480;6.056;2023-05-25T03:08:09;17.90;;;6.00;;
60014;SDS011;45867;52.480;6.056;2023-05-25T03:10:35;13.27;;;5.90;;
60014;SDS011;45867;52.480;6.056;2023-05-25T03:13:00;16.70;;;6.15;;
60014;SDS011;45867;52.480;6.056;2023-05-25T03:15:25;10.38;;;5.68;;
60014;SDS011;45867;52.480;6.056;2023-05-25T03:17:51;17.25;;;5.97;;
60014;SDS011;45867;52.480;6.056;2023-05-25T03:20:17;12.88;;;5.53;;
60014;SDS011;45867;52.480;6.056;2023-05-25T03:22:44;15.25;;;6.10;;
60014;SDS011;45867;52.480;6.056;2023-05-25T03:25:10;13.50;;;6.13;;
60014;SDS011;45867;52.480;6.056;2023-05-25T03:27:38;12.38;;;5.68;;
60014;SDS011;45867;52.480;6.056;2023-05-25T03:30:04;14.10;;;5.63;;
60014;SDS011;45867;52.480;6.056;2023-05-25T03:32:30;15.80;;;5.75;;
60014;SDS011;45867;52.480;6.056;2023-05-25T03:34:56;18.75;;;5.95;;
60014;SDS011;45867;52.480;6.056;2023-05-25T03:37:21;15.40;;;5.60;;
60014;SDS011;45867;52.480;6.056;2023-05-25T03:39:47;19.25;;;6.28;;
60014;SDS011;45867;52.480;6.056;2023-05-25T03:42:12;14.68;;;6.30;;
60014;SDS011;45867;52.480;6.056;2023-05-25T03:44:37;12.60;;;5.70;;
60014;SDS011;45867;52.480;6.056;2023-05-25T03:47:03;15.75;;;5.90;;
60014;SDS011;45867;52.480;6.056;2023-05-25T03:49:28;17.30;;;5.63;;
60014;SDS011;45867;52.480;6.056;2023-05-25T03:51:53;14.02;;;5.95;;
60014;SDS011;45867;52.480;6.056;2023-05-25T03:54:19;12.75;;;6.30;;
60014;SDS011;45867;52.480;6.056;2023-05-25T03:56:44;15.27;;;6.45;;
60014;SDS011;45867;52.480;6.056;2023-05-25T03:59:09;16.60;;;6.32;;
60014;SDS011;45867;52.480;6.056;2023-05-25T04:01:35;13.95;;;6.05;;
60014;SDS011;45867;52.480;6.056;2023-05-25T04:04:02;15.18;;;6.00;;
60014;SDS011;45867;52.480;6.056;2023-05-25T04:06:28;17.38;;;6.50;;
60014;SDS011;45867;52.480;6.056;2023-05-25T04:08:54;16.13;;;5.80;;
60014;SDS011;45867;52.480;6.056;2023-05-25T04:11:19;14.95;;;6.15;;
60014;SDS011;45867;52.480;6.056;2023-05-25T04:13:46;15.93;;;6.20;;
60014;SDS011;45867;52.480;6.056;2023-05-25T04:16:11;13.27;;;6.53;;
60014;SDS011;45867;52.480;6.056;2023-05-25T04:18:37;16.13;;;6.82;;
60014;SDS011;45867;52.480;6.056;2023-05-25T04:21:02;14.43;;;6.88;;
60014;SDS011;45867;52.480;6.056;2023-05-25T04:23:28;18.55;;;6.53;;
60014;SDS011;45867;52.480;6.056;2023-05-25T04:25:53;19.60;;;7.10;;
60014;SDS011;45867;52.480;6.056;2023-05-25T04:28:19;15.88;;;7.05;;
60014;SDS011;45867;52.480;6.056;2023-05-25T04:30:44;20.35;;;6.97;;
60014;SDS011;45867;52.480;6.056;2023-05-25T04:33:09;19.08;;;6.70;;
60014;SDS011;45867;52.480;6.056;2023-05-25T04:35:38;25.38;;;7.45;;
60014;SDS011;45867;52.480;6.056;2023-05-25T04:38:06;21.13;;;8.02;;
60014;SDS011;45867;52.480;6.056;2023-05-25T04:40:32;17.13;;;7.53;;
60014;SDS011;45867;52.480;6.056;2023-05-25T04:42:59;16.67;;;7.20;;
60014;SDS011;45867;52.480;6.056;2023-05-25T04:45:24;14.00;;;7.00;;
60014;SDS011;45867;52.480;6.056;2023-05-25T04:47:50;17.17;;;7.70;;
60014;SDS011;45867;52.480;6.056;2023-05-25T04:50:15;22.13;;;8.50;;
60014;SDS011;45867;52.480;6.056;2023-05-25T04:52:40;27.13;;;7.60;;
60014;SDS011;45867;52.480;6.056;2023-05-25T04:55:06;19.58;;;7.93;;
60014;SDS011;45867;52.480;6.056;2023-05-25T04:57:31;21.98;;;8.25;;
60014;SDS011;45867;52.480;6.056;2023-05-25T04:59:57;25.35;;;8.68;;
60014;SDS011;45867;52.480;6.056;2023-05-25T05:02:22;19.27;;;8.05;;
60014;SDS011;45867;52.480;6.056;2023-05-25T05:04:48;20.30;;;8.25;;
60014;SDS011;45867;52.480;6.056;2023-05-25T05:07:17;16.40;;;8.20;;
60014;SDS011;45867;52.480;6.056;2023-05-25T05:09:43;29.65;;;9.20;;
60014;SDS011;45867;52.480;6.056;2023-05-25T05:12:08;22.13;;;8.73;;
60014;SDS011;45867;52.480;6.056;2023-05-25T05:14:34;18.10;;;8.07;;
60014;SDS011;45867;52.480;6.056;2023-05-25T05:17:00;29.27;;;8.93;;
60014;SDS011;45867;52.480;6.056;2023-05-25T05:19:25;23.90;;;8.63;;
60014;SDS011;45867;52.480;6.056;2023-05-25T05:21:50;18.55;;;8.10;;
60014;SDS011;45867;52.480;6.056;2023-05-25T05:24:16;17.10;;;8.05;;
60014;SDS011;45867;52.480;6.056;2023-05-25T05:26:41;16.17;;;7.63;;
60014;SDS011;45867;52.480;6.056;2023-05-25T05:29:07;17.58;;;8.05;;
60014;SDS011;45867;52.480;6.056;2023-05-25T05:31:32;24.02;;;9.25;;
60014;SDS011;45867;52.480;6.056;2023-05-25T05:33:58;24.52;;;9.23;;
60014;SDS011;45867;52.480;6.056;2023-05-25T05:36:23;19.20;;;8.90;;
60014;SDS011;45867;52.480;6.056;2023-05-25T05:38:49;16.92;;;8.02;;
60014;SDS011;45867;52.480;6.056;2023-05-25T05:41:15;22.67;;;8.10;;
60014;SDS011;45867;52.480;6.056;2023-05-25T05:43:40;26.17;;;8.75;;
60014;SDS011;45867;52.480;6.056;2023-05-25T05:46:08;25.73;;;8.68;;
60014;SDS011;45867;52.480;6.056;2023-05-25T05:48:34;20.23;;;8.05;;
60014;SDS011;45867;52.480;6.056;2023-05-25T05:51:00;20.10;;;8.82;;
60014;SDS011;45867;52.480;6.056;2023-05-25T05:53:26;19.83;;;8.95;;
60014;SDS011;45867;52.480;6.056;2023-05-25T05:55:51;17.35;;;8.35;;
60014;SDS011;45867;52.480;6.056;2023-05-25T05:58:22;26.25;;;9.18;;
60014;SDS011;45867;52.480;6.056;2023-05-25T06:00:50;21.77;;;9.82;;
60014;SDS011;45867;52.480;6.056;2023-05-25T06:03:16;24.88;;;9.20;;
60014;SDS011;45867;52.480;6.056;2023-05-25T06:05:42;24.02;;;9.35;;
60014;SDS011;45867;52.480;6.056;2023-05-25T06:08:07;28.52;;;9.52;;
60014;SDS011;45867;52.480;6.056;2023-05-25T06:10:34;18.48;;;9.15;;
60014;SDS011;45867;52.480;6.056;2023-05-25T06:12:59;24.63;;;9.05;;
60014;SDS011;45867;52.480;6.056;2023-05-25T06:15:24;22.58;;;9.25;;
60014;SDS011;45867;52.480;6.056;2023-05-25T06:17:50;20.80;;;9.50;;
60014;SDS011;45867;52.480;6.056;2023-05-25T06:20:15;27.95;;;9.38;;
60014;SDS011;45867;52.480;6.056;2023-05-25T06:22:40;25.85;;;9.52;;
60014;SDS011;45867;52.480;6.056;2023-05-25T06:25:06;24.10;;;9.48;;
60014;SDS011;45867;52.480;6.056;2023-05-25T06:27:34;25.20;;;9.98;;
60014;SDS011;45867;52.480;6.056;2023-05-25T06:30:00;23.50;;;10.35;;
60014;SDS011;45867;52.480;6.056;2023-05-25T06:32:25;27.80;;;10.57;;
60014;SDS011;45867;52.480;6.056;2023-05-25T06:34:50;25.88;;;10.40;;
60014;SDS011;45867;52.480;6.056;2023-05-25T06:37:16;23.88;;;10.00;;
60014;SDS011;45867;52.480;6.056;2023-05-25T06:39:41;19.20;;;8.43;;
60014;SDS011;45867;52.480;6.056;2023-05-25T06:42:07;20.63;;;8.00;;
60014;SDS011;45867;52.480;6.056;2023-05-25T06:44:33;17.92;;;8.27;;
60014;SDS011;45867;52.480;6.056;2023-05-25T06:46:59;19.00;;;7.38;;
60014;SDS011;45867;52.480;6.056;2023-05-25T06:49:24;18.02;;;6.72;;
60014;SDS011;45867;52.480;6.056;2023-05-25T06:51:49;13.48;;;6.22;;
60014;SDS011;45867;52.480;6.056;2023-05-25T06:54:15;14.02;;;6.32;;
60014;SDS011;45867;52.480;6.056;2023-05-25T06:56:50;12.45;;;5.68;;
60014;SDS011;45867;52.480;6.056;2023-05-25T06:59:15;15.05;;;6.40;;
60014;SDS011;45867;52.480;6.056;2023-05-25T07:01:42;18.58;;;5.85;;
60014;SDS011;45867;52.480;6.056;2023-05-25T07:04:09;21.02;;;5.78;;
60014;SDS011;45867;52.480;6.056;2023-05-25T07:06:35;19.13;;;6.10;;
60014;SDS011;45867;52.480;6.056;2023-05-25T07:09:00;19.95;;;5.85;;
60014;SDS011;45867;52.480;6.056;2023-05-25T07:11:26;12.63;;;5.88;;
60014;SDS011;45867;52.480;6.056;2023-05-25T07:13:52;15.85;;;5.75;;
60014;SDS011;45867;52.480;6.056;2023-05-25T07:16:20;17.20;;;5.78;;
60014;SDS011;45867;52.480;6.056;2023-05-25T07:18:45;21.30;;;4.78;;
60014;SDS011;45867;52.480;6.056;2023-05-25T07:21:11;9.98;;;4.50;;
60014;SDS011;45867;52.480;6.056;2023-05-25T07:23:37;16.40;;;5.03;;
60014;SDS011;45867;52.480;6.056;2023-05-25T07:26:04;12.35;;;4.60;;
60014;SDS011;45867;52.480;6.056;2023-05-25T07:28:35;11.45;;;4.50;;
60014;SDS011;45867;52.480;6.056;2023-05-25T07:33:26;13.73;;;4.17;;
60014;SDS011;45867;52.480;6.056;2023-05-25T07:35:51;14.80;;;4.60;;
60014;SDS011;45867;52.480;6.056;2023-05-25T07:38:17;20.30;;;4.32;;
60014;SDS011;45867;52.480;6.056;2023-05-25T07:40:45;11.13;;;3.58;;
60014;SDS011;45867;52.480;6.056;2023-05-25T07:43:11;13.00;;;3.92;;
60014;SDS011;45867;52.480;6.056;2023-05-25T07:45:37;10.35;;;3.50;;
60014;SDS011;45867;52.480;6.056;2023-05-25T07:48:02;12.82;;;3.88;;
60014;SDS011;45867;52.480;6.056;2023-05-25T07:50:30;10.20;;;3.53;;
60014;SDS011;45867;52.480;6.056;2023-05-25T07:52:56;11.93;;;3.97;;
60014;SDS011;45867;52.480;6.056;2023-05-25T07:55:23;10.80;;;3.60;;
60014;SDS011;45867;52.480;6.056;2023-05-25T07:57:50;16.05;;;3.80;;
60014;SDS011;45867;52.480;6.056;2023-05-25T08:00:15;12.48;;;4.10;;
60014;SDS011;45867;52.480;6.056;2023-05-25T08:02:41;9.85;;;3.60;;
60014;SDS011;45867;52.480;6.056;2023-05-25T08:05:07;9.63;;;3.35;;
60014;SDS011;45867;52.480;6.056;2023-05-25T08:07:33;11.85;;;3.53;;
60014;SDS011;45867;52.480;6.056;2023-05-25T08:09:59;13.95;;;3.85;;
60014;SDS011;45867;52.480;6.056;2023-05-25T08:12:25;10.63;;;3.58;;
60014;SDS011;45867;52.480;6.056;2023-05-25T08:14:50;11.90;;;3.65;;
60014;SDS011;45867;52.480;6.056;2023-05-25T08:17:16;10.15;;;3.63;;
60014;SDS011;45867;52.480;6.056;2023-05-25T08:19:41;15.77;;;3.85;;
60014;SDS011;45867;52.480;6.056;2023-05-25T08:22:06;13.35;;;4.50;;
60014;SDS011;45867;52.480;6.056;2023-05-25T08:24:32;11.82;;;3.83;;
60014;SDS011;45867;52.480;6.056;2023-05-25T08:26:57;9.23;;;3.40;;
60014;SDS011;45867;52.480;6.056;2023-05-25T08:29:22;11.02;;;3.20;;
60014;SDS011;45867;52.480;6.056;2023-05-25T08:31:48;12.40;;;3.63;;
60014;SDS011;45867;52.480;6.056;2023-05-25T08:34:15;9.27;;;3.08;;
60014;SDS011;45867;52.480;6.056;2023-05-25T08:36:41;10.65;;;3.22;;
60014;SDS011;45867;52.480;6.056;2023-05-25T08:39:06;15.98;;;3.20;;
60014;SDS011;45867;52.480;6.056;2023-05-25T08:41:33;12.77;;;3.50;;
60014;SDS011;45867;52.480;6.056;2023-05-25T08:44:00;11.32;;;3.45;;
60014;SDS011;45867;52.480;6.056;2023-05-25T08:46:30;15.32;;;3.55;;
60014;SDS011;45867;52.480;6.056;2023-05-25T08:49:09;8.30;;;2.90;;
60014;SDS011;45867;52.480;6.056;2023-05-25T08:51:37;13.32;;;3.75;;
60014;SDS011;45867;52.480;6.056;2023-05-25T08:54:07;11.57;;;3.35;;
60014;SDS011;45867;52.480;6.056;2023-05-25T09:02:24;15.32;;;4.13;;
60014;SDS011;45867;52.480;6.056;2023-05-25T09:04:51;11.02;;;3.70;;
60014;SDS011;45867;52.480;6.056;2023-05-25T09:07:16;10.88;;;3.35;;
60014;SDS011;45867;52.480;6.056;2023-05-25T09:09:42;12.63;;;3.40;;
60014;SDS011;45867;52.480;6.056;2023-05-25T09:12:09;15.85;;;3.80;;
60014;SDS011;45867;52.480;6.056;2023-05-25T09:14:34;11.90;;;3.78;;
60014;SDS011;45867;52.480;6.056;2023-05-25T09:17:01;16.45;;;3.97;;
60014;SDS011;45867;52.480;6.056;2023-05-25T09:19:27;11.25;;;3.35;;
60014;SDS011;45867;52.480;6.056;2023-05-25T09:21:52;13.02;;;4.15;;
60014;SDS011;45867;52.480;6.056;2023-05-25T09:24:17;13.23;;;4.28;;
60014;SDS011;45867;52.480;6.056;2023-05-25T09:27:12;13.25;;;3.55;;
60014;SDS011;45867;52.480;6.056;2023-05-25T09:29:41;9.63;;;3.30;;
60014;SDS011;45867;52.480;6.056;2023-05-25T09:32:07;12.70;;;3.42;;
60014;SDS011;45867;52.480;6.056;2023-05-25T09:34:32;13.68;;;3.80;;
60014;SDS011;45867;52.480;6.056;2023-05-25T09:36:58;13.07;;;3.88;;
60014;SDS011;45867;52.480;6.056;2023-05-25T09:39:24;12.25;;;3.55;;
60014;SDS011;45867;52.480;6.056;2023-05-25T09:41:49;13.65;;;3.72;;
60014;SDS011;45867;52.480;6.056;2023-05-25T09:44:15;12.32;;;3.90;;
60014;SDS011;45867;52.480;6.056;2023-05-25T09:46:40;18.60;;;4.50;;
60014;SDS011;45867;52.480;6.056;2023-05-25T09:49:07;13.73;;;4.20;;
60014;SDS011;45867;52.480;6.056;2023-05-25T09:51:33;19.40;;;4.80;;
60014;SDS011;45867;52.480;6.056;2023-05-25T09:54:00;16.00;;;4.28;;
60014;SDS011;45867;52.480;6.056;2023-05-25T09:56:30;12.88;;;3.88;;
60014;SDS011;45867;52.480;6.056;2023-05-25T09:58:59;13.93;;;4.63;;
60014;SDS011;45867;52.480;6.056;2023-05-25T10:01:25;12.35;;;4.00;;
60014;SDS011;45867;52.480;6.056;2023-05-25T10:03:53;15.50;;;4.13;;
60014;SDS011;45867;52.480;6.056;2023-05-25T10:06:25;14.13;;;3.67;;
60014;SDS011;45867;52.480;6.056;2023-05-25T10:08:51;13.70;;;4.03;;
60014;SDS011;45867;52.480;6.056;2023-05-25T10:11:17;13.75;;;4.43;;
60014;SDS011;45867;52.480;6.056;2023-05-25T10:13:43;12.23;;;3.88;;
60014;SDS011;45867;52.480;6.056;2023-05-25T10:16:10;14.93;;;4.18;;
60014;SDS011;45867;52.480;6.056;2023-05-25T10:18:50;16.10;;;4.13;;
60014;SDS011;45867;52.480;6.056;2023-05-25T10:21:19;21.45;;;4.32;;
60014;SDS011;45867;52.480;6.056;2023-05-25T10:23:46;14.18;;;3.83;;
60014;SDS011;45867;52.480;6.056;2023-05-25T10:26:17;16.77;;;3.95;;
60014;SDS011;45867;52.480;6.056;2023-05-25T10:28:45;12.45;;;3.22;;
60014;SDS011;45867;52.480;6.056;2023-05-25T10:31:14;11.05;;;3.10;;
60014;SDS011;45867;52.480;6.056;2023-05-25T10:33:40;11.90;;;3.00;;
60014;SDS011;45867;52.480;6.056;2023-05-25T10:36:08;10.38;;;3.33;;
60014;SDS011;45867;52.480;6.056;2023-05-25T10:38:34;11.82;;;3.20;;
60014;SDS011;45867;52.480;6.056;2023-05-25T10:41:01;9.93;;;3.15;;
60014;SDS011;45867;52.480;6.056;2023-05-25T10:43:28;10.55;;;3.70;;
60014;SDS011;45867;52.480;6.056;2023-05-25T10:45:54;11.38;;;3.72;;
60014;SDS011;45867;52.480;6.056;2023-05-25T10:48:20;12.73;;;3.60;;
60014;SDS011;45867;52.480;6.056;2023-05-25T10:50:48;12.98;;;3.70;;
60014;SDS011;45867;52.480;6.056;2023-05-25T10:53:19;13.10;;;3.60;;
60014;SDS011;45867;52.480;6.056;2023-05-25T10:58:16;15.27;;;3.70;;
60014;SDS011;45867;52.480;6.056;2023-05-25T11:00:58;13.20;;;3.65;;
60014;SDS011;45867;52.480;6.056;2023-05-25T11:11:21;16.52;;;3.88;;
60014;SDS011;45867;52.480;6.056;2023-05-25T11:14:19;11.45;;;3.80;;
60014;SDS011;45867;52.480;6.056;2023-05-25T11:17:02;21.95;;;4.78;;
60014;SDS011;45867;52.480;6.056;2023-05-25T11:19:40;15.90;;;3.70;;
60014;SDS011;45867;52.480;6.056;2023-05-25T11:22:12;13.20;;;3.58;;
60014;SDS011;45867;52.480;6.056;2023-05-25T11:24:46;15.87;;;3.20;;
60014;SDS011;45867;52.480;6.056;2023-05-25T11:27:22;16.75;;;3.33;;
60014;SDS011;45867;52.480;6.056;2023-05-25T11:29:48;23.65;;;4.95;;
60014;SDS011;45867;52.480;6.056;2023-05-25T11:32:18;15.90;;;4.15;;
60014;SDS011;45867;52.480;6.056;2023-05-25T11:34:50;12.73;;;3.70;;
60014;SDS011;45867;52.480;6.056;2023-05-25T11:37:17;18.02;;;3.85;;
60014;SDS011;45867;52.480;6.056;2023-05-25T11:39:49;24.25;;;4.88;;
60014;SDS011;45867;52.480;6.056;2023-05-25T11:42:16;16.60;;;4.20;;
60014;SDS011;45867;52.480;6.056;2023-05-25T11:44:46;16.63;;;4.65;;
60014;SDS011;45867;52.480;6.056;2023-05-25T11:47:12;49.08;;;6.28;;
60014;SDS011;45867;52.480;6.056;2023-05-25T11:49:47;24.02;;;4.60;;
60014;SDS011;45867;52.480;6.056;2023-05-25T11:52:21;17.17;;;4.13;;
60014;SDS011;45867;52.480;6.056;2023-05-25T11:54:47;17.05;;;4.10;;
60014;SDS011;45867;52.480;6.056;2023-05-25T11:57:16;16.27;;;3.80;;
60014;SDS011;45867;52.480;6.056;2023-05-25T11:59:50;21.50;;;4.18;;
60014;SDS011;45867;52.480;6.056;2023-05-25T12:02:17;19.70;;;4.50;;
60014;SDS011;45867;52.480;6.056;2023-05-25T12:04:56;18.17;;;4.05;;
60014;SDS011;45867;52.480;6.056;2023-05-25T12:07:28;12.57;;;4.20;;
60014;SDS011;45867;52.480;6.056;2023-05-25T12:10:04;20.77;;;4.22;;
60014;SDS011;45867;52.480;6.056;2023-05-25T12:12:38;15.98;;;4.90;;
60014;SDS011;45867;52.480;6.056;2023-05-25T12:15:08;25.52;;;4.15;;
60014;SDS011;45867;52.480;6.056;2023-05-25T12:17:35;21.08;;;4.53;;
60014;SDS011;45867;52.480;6.056;2023-05-25T12:20:02;17.27;;;4.10;;
60014;SDS011;45867;52.480;6.056;2023-05-25T12:22:28;17.50;;;4.57;;
60014;SDS011;45867;52.480;6.056;2023-05-25T12:24:54;18.33;;;4.20;;
60014;SDS011;45867;52.480;6.056;2023-05-25T12:27:19;19.30;;;4.55;;
60014;SDS011;45867;52.480;6.056;2023-05-25T12:29:46;25.55;;;4.82;;
60014;SDS011;45867;52.480;6.056;2023-05-25T12:32:13;14.98;;;4.15;;
60014;SDS011;45867;52.480;6.056;2023-05-25T12:34:38;39.08;;;5.15;;
60014;SDS011;45867;52.480;6.056;2023-05-25T12:37:03;19.85;;;5.05;;
60014;SDS011;45867;52.480;6.056;2023-05-25T12:41:55;17.90;;;4.67;;
60014;SDS011;45867;52.480;6.056;2023-05-25T12:44:34;21.00;;;4.55;;
60014;SDS011;45867;52.480;6.056;2023-05-25T12:49:46;16.98;;;3.97;;
60014;SDS011;45867;52.480;6.056;2023-05-25T12:58:04;16.90;;;4.50;;
60014;SDS011;45867;52.480;6.056;2023-05-25T13:00:31;19.20;;;4.45;;
60014;SDS011;45867;52.480;6.056;2023-05-25T13:03:04;17.05;;;4.43;;
60014;SDS011;45867;52.480;6.056;2023-05-25T13:05:33;13.48;;;3.85;;
60014;SDS011;45867;52.480;6.056;2023-05-25T13:08:00;18.92;;;4.30;;
60014;SDS011;45867;52.480;6.056;2023-05-25T13:10:27;18.77;;;4.55;;
60014;SDS011;45867;52.480;6.056;2023-05-25T13:12:53;23.55;;;4.28;;
60014;SDS011;45867;52.480;6.056;2023-05-25T13:15:21;16.40;;;4.43;;
60014;SDS011;45867;52.480;6.056;2023-05-25T13:17:47;20.17;;;4.32;;
60014;SDS011;45867;52.480;6.056;2023-05-25T13:20:14;22.85;;;4.45;;
60014;SDS011;45867;52.480;6.056;2023-05-25T13:22:42;19.27;;;4.80;;
60014;SDS011;45867;52.480;6.056;2023-05-25T13:25:08;18.90;;;4.15;;
60014;SDS011;45867;52.480;6.056;2023-05-25T13:27:34;21.90;;;5.35;;
60014;SDS011;45867;52.480;6.056;2023-05-25T13:30:05;23.23;;;4.60;;
60014;SDS011;45867;52.480;6.056;2023-05-25T13:32:31;18.13;;;4.63;;
60014;SDS011;45867;52.480;6.056;2023-05-25T13:34:57;25.33;;;4.47;;
60014;SDS011;45867;52.480;6.056;2023-05-25T13:37:26;21.48;;;4.53;;
60014;SDS011;45867;52.480;6.056;2023-05-25T13:39:52;20.75;;;4.70;;
60014;SDS011;45867;52.480;6.056;2023-05-25T13:42:22;21.92;;;4.90;;
60014;SDS011;45867;52.480;6.056;2023-05-25T13:44:47;21.77;;;4.60;;
60014;SDS011;45867;52.480;6.056;2023-05-25T13:47:13;20.15;;;4.82;;
60014;SDS011;45867;52.480;6.056;2023-05-25T13:49:38;18.42;;;4.72;;
60014;SDS011;45867;52.480;6.056;2023-05-25T13:52:03;24.25;;;4.85;;
60014;SDS011;45867;52.480;6.056;2023-05-25T13:54:29;20.90;;;4.13;;
60014;SDS011;45867;52.480;6.056;2023-05-25T13:56:54;20.08;;;4.55;;
60014;SDS011;45867;52.480;6.056;2023-05-25T13:59:20;15.10;;;4.40;;
60014;SDS011;45867;52.480;6.056;2023-05-25T14:01:45;20.05;;;4.78;;
60014;SDS011;45867;52.480;6.056;2023-05-25T14:04:11;25.48;;;4.57;;
60014;SDS011;45867;52.480;6.056;2023-05-25T14:06:39;19.00;;;4.53;;
60014;SDS011;45867;52.480;6.056;2023-05-25T14:09:04;31.73;;;5.53;;
60014;SDS011;45867;52.480;6.056;2023-05-25T14:11:30;15.50;;;4.43;;
60014;SDS011;45867;52.480;6.056;2023-05-25T14:13:55;25.83;;;4.82;;
60014;SDS011;45867;52.480;6.056;2023-05-25T14:16:20;21.65;;;5.07;;
60014;SDS011;45867;52.480;6.056;2023-05-25T14:18:46;25.30;;;5.40;;
60014;SDS011;45867;52.480;6.056;2023-05-25T14:21:11;21.42;;;5.47;;
60014;SDS011;45867;52.480;6.056;2023-05-25T14:23:37;25.15;;;4.65;;
60014;SDS011;45867;52.480;6.056;2023-05-25T14:26:02;17.08;;;4.50;;
60014;SDS011;45867;52.480;6.056;2023-05-25T14:28:28;17.23;;;5.20;;
60014;SDS011;45867;52.480;6.056;2023-05-25T14:30:53;24.33;;;4.97;;
60014;SDS011;45867;52.480;6.056;2023-05-25T14:33:19;21.83;;;4.85;;
60014;SDS011;45867;52.480;6.056;2023-05-25T14:35:44;20.20;;;4.75;;
60014;SDS011;45867;52.480;6.056;2023-05-25T14:38:09;22.38;;;5.43;;
60014;SDS011;45867;52.480;6.056;2023-05-25T14:40:35;16.35;;;4.75;;
60014;SDS011;45867;52.480;6.056;2023-05-25T14:43:00;22.10;;;4.72;;
60014;SDS011;45867;52.480;6.056;2023-05-25T14:45:25;17.60;;;4.07;;
60014;SDS011;45867;52.480;6.056;2023-05-25T14:47:51;22.63;;;4.22;;
60014;SDS011;45867;52.480;6.056;2023-05-25T14:50:16;21.02;;;4.78;;
60014;SDS011;45867;52.480;6.056;2023-05-25T14:52:42;20.33;;;4.35;;
60014;SDS011;45867;52.480;6.056;2023-05-25T14:55:07;25.27;;;4.80;;
60014;SDS011;45867;52.480;6.056;2023-05-25T14:57:33;25.42;;;5.20;;
60014;SDS011;45867;52.480;6.056;2023-05-25T15:00:00;20.70;;;4.78;;
60014;SDS011;45867;52.480;6.056;2023-05-25T15:02:25;19.20;;;4.32;;
60014;SDS011;45867;52.480;6.056;2023-05-25T15:04:50;23.73;;;5.18;;
60014;SDS011;45867;52.480;6.056;2023-05-25T15:07:18;24.33;;;4.93;;
60014;SDS011;45867;52.480;6.056;2023-05-25T15:09:47;24.77;;;5.22;;
60014;SDS011;45867;52.480;6.056;2023-05-25T15:12:12;28.48;;;4.95;;